DEMKZ EDDK-ZZZZ
Flight info
| Callsign | DEMKZ |
|---|---|
| Flight time | N/A |
| Altitude | |
| Route | EDDK/13L |
| Aircraft |
Departure
| Time | 2026-05-03 20:33 |
|---|---|
| Airport | Cologne Bonn Airport (EDDK) |
Arrival
| Time | N/A |
|---|---|
| Airport | ZZZZ |
| Time | Latitude | Longitude | Altitude | Speed | Heading |
|---|---|---|---|---|---|
| 2026-05-03 20:27 | 50.87191 | 7.12265 | 226 ft | 0 kts | 4° |
| 2026-05-03 20:28 | 50.87225 | 7.12272 | 226 ft | 15 kts | 15° |
| 2026-05-03 20:28 | 50.87320 | 7.12320 | 227 ft | 24 kts | 18° |
| 2026-05-03 20:28 | 50.87453 | 7.12384 | 229 ft | 29 kts | 20° |
| 2026-05-03 20:29 | 50.87584 | 7.12460 | 235 ft | 0 kts | 10° |
| 2026-05-03 20:29 | 50.87602 | 7.12465 | 235 ft | 8 kts | 13° |
| 2026-05-03 20:30 | 50.87695 | 7.12516 | 239 ft | 14 kts | 19° |
| 2026-05-03 20:30 | 50.87709 | 7.12524 | 239 ft | 3 kts | 26° |
| 2026-05-03 20:30 | 50.87774 | 7.12549 | 241 ft | 17 kts | 8° |
| 2026-05-03 20:30 | 50.87897 | 7.12616 | 243 ft | 5 kts | 24° |
| 2026-05-03 20:31 | 50.87929 | 7.12639 | 242 ft | 12 kts | 30° |
| 2026-05-03 20:31 | 50.87979 | 7.12707 | 241 ft | 1 kts | 54° |
| 2026-05-03 20:31 | 50.87997 | 7.12767 | 241 ft | 16 kts | 64° |
| 2026-05-03 20:31 | 50.87978 | 7.12993 | 238 ft | 12 kts | 128° |
| 2026-05-03 20:32 | 50.87854 | 7.13187 | 240 ft | 51 kts | 135° |
| 2026-05-03 20:32 | 50.87522 | 7.13672 | 242 ft | 84 kts | 135° |
| 2026-05-03 20:32 | 50.87236 | 7.14188 | 544 ft | 66 kts | 128° |
| 2026-05-03 20:32 | 50.87075 | 7.14466 | 625 ft | 68 kts | 137° |
| 2026-05-03 20:33 | 50.86863 | 7.14787 | 749 ft | 69 kts | 135° |
| 2026-05-03 20:33 | 50.86548 | 7.15284 | 888 ft | 74 kts | 138° |
| 2026-05-03 20:33 | 50.86202 | 7.15767 | 1044 ft | 77 kts | 142° |
| 2026-05-03 20:34 | 50.85828 | 7.16239 | 1253 ft | 72 kts | 148° |
| 2026-05-03 20:34 | 50.85453 | 7.16706 | 1380 ft | 80 kts | 142° |
| 2026-05-03 20:34 | 50.85084 | 7.17258 | 1550 ft | 80 kts | 144° |
| 2026-05-03 20:34 | 50.84734 | 7.17835 | 1732 ft | 79 kts | 139° |
| 2026-05-03 20:35 | 50.84414 | 7.18419 | 1949 ft | 73 kts | 137° |
| 2026-05-03 20:35 | 50.84256 | 7.18720 | 2064 ft | 69 kts | 137° |
| 2026-05-03 20:35 | 50.84055 | 7.19119 | 2219 ft | 64 kts | 136° |
| 2026-05-03 20:36 | 50.83823 | 7.19718 | 2322 ft | 76 kts | 121° |
| 2026-05-03 20:36 | 50.83575 | 7.20440 | 2445 ft | 80 kts | 134° |
| 2026-05-03 20:36 | 50.83218 | 7.21114 | 2571 ft | 87 kts | 139° |
| 2026-05-03 20:36 | 50.83147 | 7.21243 | 2592 ft | 88 kts | 139° |
| 2026-05-03 20:37 | 50.82881 | 7.21718 | 2665 ft | 93 kts | 138° |
| 2026-05-03 20:37 | 50.82481 | 7.22424 | 2765 ft | 99 kts | 139° |
| 2026-05-03 20:37 | 50.82067 | 7.23149 | 2864 ft | 104 kts | 138° |
| 2026-05-03 20:37 | 50.81593 | 7.23795 | 2945 ft | 101 kts | 163° |
| 2026-05-03 20:38 | 50.81016 | 7.23899 | 3025 ft | 94 kts | 199° |
| 2026-05-03 20:38 | 50.80532 | 7.23351 | 3107 ft | 89 kts | 239° |
| 2026-05-03 20:38 | 50.80346 | 7.22428 | 3199 ft | 89 kts | 256° |
| 2026-05-03 20:38 | 50.80246 | 7.21476 | 3293 ft | 89 kts | 258° |
| 2026-05-03 20:39 | 50.80159 | 7.20552 | 3386 ft | 89 kts | 258° |
| 2026-05-03 20:39 | 50.80078 | 7.19641 | 3481 ft | 89 kts | 258° |
| 2026-05-03 20:39 | 50.79998 | 7.18719 | 3577 ft | 88 kts | 258° |
| 2026-05-03 20:39 | 50.79919 | 7.17831 | 3671 ft | 88 kts | 258° |
| 2026-05-03 20:40 | 50.79840 | 7.16946 | 3762 ft | 88 kts | 258° |
| 2026-05-03 20:40 | 50.79762 | 7.16083 | 3851 ft | 88 kts | 258° |
| 2026-05-03 20:40 | 50.79682 | 7.15198 | 3943 ft | 88 kts | 258° |
| 2026-05-03 20:40 | 50.79601 | 7.14293 | 3987 ft | 92 kts | 258° |
| 2026-05-03 20:41 | 50.79509 | 7.13291 | 3991 ft | 98 kts | 259° |
| 2026-05-03 20:41 | 50.79411 | 7.12247 | 3990 ft | 101 kts | 259° |
| 2026-05-03 20:41 | 50.79313 | 7.11208 | 3988 ft | 102 kts | 259° |
| 2026-05-03 20:41 | 50.79215 | 7.10191 | 3988 ft | 103 kts | 259° |
| 2026-05-03 20:42 | 50.79116 | 7.09155 | 3988 ft | 103 kts | 259° |
| 2026-05-03 20:42 | 50.79019 | 7.08143 | 3987 ft | 104 kts | 259° |
| 2026-05-03 20:42 | 50.78927 | 7.07186 | 3987 ft | 104 kts | 259° |
| 2026-05-03 20:42 | 50.78830 | 7.06170 | 3986 ft | 104 kts | 259° |
| 2026-05-03 20:43 | 50.78731 | 7.05141 | 3988 ft | 103 kts | 259° |
| 2026-05-03 20:43 | 50.78635 | 7.04135 | 3988 ft | 103 kts | 259° |
| 2026-05-03 20:43 | 50.78540 | 7.03121 | 3988 ft | 103 kts | 259° |
| 2026-05-03 20:43 | 50.78445 | 7.02117 | 3987 ft | 103 kts | 259° |
| 2026-05-03 20:44 | 50.78352 | 7.01107 | 3986 ft | 103 kts | 259° |
| 2026-05-03 20:44 | 50.78257 | 7.00086 | 3986 ft | 104 kts | 259° |
| 2026-05-03 20:44 | 50.78166 | 6.99086 | 3987 ft | 103 kts | 259° |
| 2026-05-03 20:44 | 50.78076 | 6.98075 | 3986 ft | 104 kts | 259° |
| 2026-05-03 20:45 | 50.77990 | 6.97094 | 3987 ft | 104 kts | 259° |
| 2026-05-03 20:45 | 50.77904 | 6.96112 | 3988 ft | 104 kts | 259° |
| 2026-05-03 20:45 | 50.77817 | 6.95121 | 3988 ft | 104 kts | 259° |
| 2026-05-03 20:45 | 50.77729 | 6.94131 | 3988 ft | 104 kts | 259° |
| 2026-05-03 20:46 | 50.77639 | 6.93102 | 3986 ft | 104 kts | 259° |
| 2026-05-03 20:46 | 50.77546 | 6.92074 | 3985 ft | 105 kts | 259° |
| 2026-05-03 20:46 | 50.77451 | 6.91034 | 3984 ft | 105 kts | 259° |
| 2026-05-03 20:46 | 50.77352 | 6.89970 | 3982 ft | 105 kts | 259° |
| 2026-05-03 20:47 | 50.77253 | 6.88919 | 3982 ft | 105 kts | 259° |
| 2026-05-03 20:47 | 50.77154 | 6.87886 | 3983 ft | 105 kts | 259° |
| 2026-05-03 20:47 | 50.77054 | 6.86834 | 3984 ft | 105 kts | 259° |
| 2026-05-03 20:47 | 50.76953 | 6.85776 | 3986 ft | 105 kts | 259° |
| 2026-05-03 20:48 | 50.76852 | 6.84700 | 3990 ft | 105 kts | 259° |
| 2026-05-03 20:48 | 50.76752 | 6.83643 | 3989 ft | 105 kts | 259° |
| 2026-05-03 20:48 | 50.76653 | 6.82583 | 3987 ft | 105 kts | 259° |
| 2026-05-03 20:48 | 50.76559 | 6.81557 | 3988 ft | 104 kts | 259° |
| 2026-05-03 20:49 | 50.76464 | 6.80517 | 3994 ft | 104 kts | 259° |
| 2026-05-03 20:49 | 50.76372 | 6.79495 | 3983 ft | 104 kts | 259° |
| 2026-05-03 20:49 | 50.76281 | 6.78492 | 3976 ft | 104 kts | 259° |
| 2026-05-03 20:49 | 50.76190 | 6.77493 | 3980 ft | 103 kts | 259° |
| 2026-05-03 20:50 | 50.76098 | 6.76482 | 3979 ft | 103 kts | 259° |
| 2026-05-03 20:50 | 50.76008 | 6.75483 | 3979 ft | 103 kts | 259° |
| 2026-05-03 20:50 | 50.75919 | 6.74478 | 3980 ft | 103 kts | 259° |
| 2026-05-03 20:50 | 50.75831 | 6.73475 | 3980 ft | 103 kts | 259° |
| 2026-05-03 20:51 | 50.75745 | 6.72461 | 3979 ft | 103 kts | 259° |
| 2026-05-03 20:51 | 50.75661 | 6.71472 | 3978 ft | 104 kts | 259° |
| 2026-05-03 20:51 | 50.75574 | 6.70461 | 3978 ft | 104 kts | 259° |
| 2026-05-03 20:51 | 50.75487 | 6.69454 | 3978 ft | 104 kts | 259° |
| 2026-05-03 20:52 | 50.75399 | 6.68454 | 3979 ft | 104 kts | 259° |
| 2026-05-03 20:52 | 50.75311 | 6.67450 | 3977 ft | 104 kts | 259° |
| 2026-05-03 20:52 | 50.75220 | 6.66425 | 3977 ft | 104 kts | 259° |
| 2026-05-03 20:52 | 50.75133 | 6.65425 | 3980 ft | 104 kts | 259° |
| 2026-05-03 20:53 | 50.75042 | 6.64387 | 3974 ft | 104 kts | 259° |
| 2026-05-03 20:53 | 50.74997 | 6.63895 | 3976 ft | 104 kts | 259° |
| 2026-05-03 20:53 | 50.74916 | 6.62995 | 3977 ft | 105 kts | 259° |
| 2026-05-03 20:53 | 50.74822 | 6.61957 | 3974 ft | 104 kts | 259° |
| 2026-05-03 20:54 | 50.74729 | 6.60926 | 3978 ft | 104 kts | 259° |
| 2026-05-03 20:54 | 50.74546 | 6.58903 | 3981 ft | 105 kts | 259° |
| 2026-05-03 20:54 | 50.74456 | 6.57914 | 3980 ft | 105 kts | 259° |
| 2026-05-03 20:55 | 50.74366 | 6.56940 | 3978 ft | 105 kts | 259° |
| 2026-05-03 20:55 | 50.74274 | 6.55952 | 3979 ft | 105 kts | 259° |
| 2026-05-03 20:55 | 50.74183 | 6.54981 | 3973 ft | 105 kts | 259° |
| 2026-05-03 20:55 | 50.74091 | 6.54006 | 3971 ft | 104 kts | 259° |
| 2026-05-03 20:56 | 50.74000 | 6.53029 | 3974 ft | 104 kts | 259° |
| 2026-05-03 20:56 | 50.73914 | 6.52084 | 3974 ft | 104 kts | 259° |
| 2026-05-03 20:56 | 50.73829 | 6.51136 | 3981 ft | 104 kts | 259° |
| 2026-05-03 20:56 | 50.73748 | 6.50189 | 3980 ft | 104 kts | 259° |
| 2026-05-03 20:57 | 50.73667 | 6.49239 | 3978 ft | 104 kts | 259° |
| 2026-05-03 20:57 | 50.73590 | 6.48309 | 3977 ft | 104 kts | 259° |
| 2026-05-03 20:57 | 50.73513 | 6.47401 | 3978 ft | 104 kts | 259° |
| 2026-05-03 20:57 | 50.73429 | 6.46429 | 3978 ft | 104 kts | 259° |
| 2026-05-03 20:58 | 50.73347 | 6.45456 | 3976 ft | 104 kts | 259° |
| 2026-05-03 20:58 | 50.73266 | 6.44505 | 3975 ft | 104 kts | 259° |
| 2026-05-03 20:58 | 50.73185 | 6.43564 | 3976 ft | 104 kts | 259° |
| 2026-05-03 20:58 | 50.73167 | 6.43366 | 3976 ft | 104 kts | 259° |
| 2026-05-03 20:59 | 50.73097 | 6.42548 | 3976 ft | 104 kts | 259° |
| 2026-05-03 20:59 | 50.73016 | 6.41595 | 3969 ft | 104 kts | 259° |
| 2026-05-03 20:59 | 50.72936 | 6.40652 | 3971 ft | 104 kts | 259° |
| 2026-05-03 20:59 | 50.72856 | 6.39719 | 3970 ft | 104 kts | 259° |
| 2026-05-03 21:00 | 50.72775 | 6.38783 | 3969 ft | 104 kts | 259° |
| 2026-05-03 21:00 | 50.72718 | 6.38136 | 3969 ft | 104 kts | 259° |
| 2026-05-03 21:00 | 50.72609 | 6.36898 | 3968 ft | 104 kts | 259° |
| 2026-05-03 21:00 | 50.72525 | 6.35968 | 3970 ft | 104 kts | 259° |
| 2026-05-03 21:01 | 50.72437 | 6.35035 | 3966 ft | 104 kts | 259° |
| 2026-05-03 21:01 | 50.72348 | 6.34105 | 3969 ft | 104 kts | 258° |
| 2026-05-03 21:01 | 50.72270 | 6.33105 | 3967 ft | 105 kts | 267° |
| 2026-05-03 21:01 | 50.72468 | 6.32129 | 3972 ft | 110 kts | 293° |
| 2026-05-03 21:02 | 50.74292 | 6.31350 | 3976 ft | 126 kts | 355° |
| 2026-05-03 21:03 | 50.75124 | 6.31414 | 3975 ft | 126 kts | 355° |
| 2026-05-03 21:03 | 50.75995 | 6.31519 | 3966 ft | 129 kts | 6° |
| 2026-05-03 21:03 | 50.76729 | 6.32278 | 3961 ft | 130 kts | 50° |
| 2026-05-03 21:03 | 50.77040 | 6.33343 | 3969 ft | 115 kts | 73° |
| 2026-05-03 21:04 | 50.77088 | 6.34330 | 3968 ft | 102 kts | 105° |
| 2026-05-03 21:04 | 50.76951 | 6.35202 | 3968 ft | 92 kts | 120° |
| 2026-05-03 21:04 | 50.76670 | 6.35862 | 3975 ft | 80 kts | 140° |
| 2026-05-03 21:04 | 50.76371 | 6.36414 | 3978 ft | 75 kts | 142° |
| 2026-05-03 21:05 | 50.76104 | 6.36944 | 3980 ft | 74 kts | 125° |
| 2026-05-03 21:05 | 50.76087 | 6.37666 | 3900 ft | 91 kts | 51° |
| 2026-05-03 21:05 | 50.76215 | 6.37578 | 3393 ft | 111 kts | 130° |
| 2026-05-03 21:05 | 50.76461 | 6.38005 | 3101 ft | 103 kts | 306° |
| 2026-05-03 21:06 | 50.76344 | 6.38212 | 2625 ft | 126 kts | 22° |
| 2026-05-03 21:06 | 50.76327 | 6.38170 | 2124 ft | 129 kts | 83° |
| 2026-05-03 21:06 | 50.76440 | 6.38115 | 1629 ft | 113 kts | 137° |
| 2026-05-03 21:06 | 50.76605 | 6.38161 | 1136 ft | 104 kts | 189° |
| 2026-05-03 21:07 | 50.76464 | 6.38467 | 960 ft | 0 kts | 27° |
| 2026-05-03 21:09 | 25.23584 | 55.38852 | 6 ft | 0 kts | 211° |